Time;durP1;ratioP1;P1;durP2;ratioP2;P2;SDS_P1;SDS_P2;PMS_P1;PMS_P2;Temp;Humidity;BMP_temperature;BMP_pressure;BME280_temperature;BME280_humidity;BME280_pressure;Samples;Min_cycle;Max_cycle;Signal;HPM_P1;HPM_P2
2022/11/06 00:01:23;;;;;;;2.10;0.88;;;18.40;53.40;;;;;;5115923;28;20431;-10
2022/11/06 00:03:52;;;;;;;0.77;0.77;;;18.40;53.40;;;;;;5115900;28;20055;-10
2022/11/06 00:09:07;;;;;;;0.93;0.90;;;18.40;53.90;;;;;;5115603;28;20043;-10
2022/11/06 00:11:33;;;;;;;0.80;0.80;;;18.40;53.40;;;;;;5116093;28;20051;-10
2022/11/06 00:14:00;;;;;;;1.00;0.90;;;18.40;53.40;;;;;;5115430;28;20055;-10
2022/11/06 00:16:26;;;;;;;0.70;0.70;;;18.40;53.40;;;;;;5114928;28;20140;-10
2022/11/06 00:18:54;;;;;;;1.35;1.00;;;18.40;53.40;;;;;;5115450;28;20094;-10
2022/11/06 00:21:26;;;;;;;0.82;0.82;;;18.40;53.40;;;;;;5115343;28;20047;-10
2022/11/06 00:23:55;;;;;;;0.70;0.70;;;18.40;53.40;;;;;;5115395;28;20436;-10
2022/11/06 00:26:26;;;;;;;0.60;0.60;;;18.40;53.40;;;;;;5115178;28;20040;-10
2022/11/06 00:28:53;;;;;;;1.00;0.98;;;18.40;53.40;;;;;;5115244;28;20100;-10
2022/11/06 00:31:26;;;;;;;1.23;1.13;;;18.40;53.40;;;;;;5096989;28;20054;-10
2022/11/06 00:33:55;;;;;;;0.93;0.75;;;18.40;53.40;;;;;;5115500;28;20051;-10
2022/11/06 00:36:23;;;;;;;0.70;0.70;;;18.40;53.40;;;;;;5115109;28;20061;-10
2022/11/06 00:38:52;;;;;;;0.68;0.68;;;18.40;53.40;;;;;;5114908;28;20130;-10
2022/11/06 00:41:18;;;;;;;1.02;0.90;;;18.40;53.30;;;;;;5115009;28;20126;-10
2022/11/06 00:43:57;;;;;;;1.90;1.10;;;18.40;53.40;;;;;;5115472;28;20078;-10
2022/11/06 00:46:24;;;;;;;0.82;0.80;;;18.40;53.30;;;;;;5114818;28;20051;-10
2022/11/06 00:48:51;;;;;;;0.80;0.70;;;18.40;53.30;;;;;;5114612;28;20437;-10
2022/11/06 00:51:20;;;;;;;1.00;0.80;;;18.40;53.30;;;;;;5114766;28;20064;-10
2022/11/06 00:53:46;;;;;;;0.90;0.85;;;18.40;53.30;;;;;;5115351;28;20105;-10
2022/11/06 00:56:16;;;;;;;0.75;0.75;;;18.40;53.30;;;;;;5115402;28;20043;-10
2022/11/06 00:58:42;;;;;;;0.85;0.85;;;18.40;53.30;;;;;;5113427;28;20055;-10
2022/11/06 01:01:19;;;;;;;1.08;0.98;;;18.40;53.30;;;;;;5114698;28;20044;-10
2022/11/06 01:03:47;;;;;;;0.85;0.85;;;18.40;53.30;;;;;;5114617;28;20047;-10
2022/11/06 01:06:16;;;;;;;0.98;0.82;;;18.40;53.30;;;;;;5114417;28;20043;-10
2022/11/06 01:08:44;;;;;;;1.05;0.82;;;18.40;53.30;;;;;;5114470;28;20055;-10
2022/11/06 01:11:13;;;;;;;0.85;0.82;;;18.40;53.30;;;;;;5114502;28;20050;-10
2022/11/06 01:13:39;;;;;;;0.80;0.80;;;18.40;53.30;;;;;;5114779;28;20047;-10
2022/11/06 01:16:07;;;;;;;0.85;0.80;;;18.40;53.30;;;;;;5114175;28;20059;-10
2022/11/06 01:18:34;;;;;;;0.70;0.70;;;18.40;53.30;;;;;;5114346;28;20055;-10
2022/11/06 01:21:06;;;;;;;0.70;0.70;;;18.40;53.40;;;;;;5114067;28;20547;-10
2022/11/06 01:23:31;;;;;;;0.80;0.80;;;18.40;53.30;;;;;;5114086;28;20404;-10
2022/11/06 01:25:59;;;;;;;0.95;0.88;;;18.40;53.30;;;;;;5114147;28;20047;-10
2022/11/06 01:28:25;;;;;;;0.70;0.70;;;18.40;53.30;;;;;;5113809;28;20560;-10
2022/11/06 01:30:51;;;;;;;0.80;0.80;;;18.40;53.30;;;;;;5114488;28;20105;-10
2022/11/06 01:33:16;;;;;;;2.55;1.23;;;18.40;53.30;;;;;;5113874;28;20047;-10
2022/11/06 01:35:46;;;;;;;1.00;0.82;;;18.40;53.30;;;;;;5113631;28;20100;-10
2022/11/06 01:38:12;;;;;;;1.08;1.08;;;18.40;53.30;;;;;;5114127;28;20381;-10
2022/11/06 01:40:43;;;;;;;0.80;0.70;;;18.40;53.30;;;;;;5114016;28;20051;-10
2022/11/06 01:43:21;;;;;;;1.20;0.93;;;18.40;53.30;;;;;;5114411;28;20077;-10
2022/11/06 01:45:51;;;;;;;0.80;0.80;;;18.40;53.30;;;;;;5113906;28;20100;-10
2022/11/06 01:48:20;;;;;;;0.80;0.80;;;18.40;53.30;;;;;;5113630;28;20074;-10
2022/11/06 01:50:49;;;;;;;1.13;0.70;;;18.40;53.30;;;;;;5113882;28;20132;-10
2022/11/06 01:53:16;;;;;;;0.90;0.80;;;18.40;53.30;;;;;;5114162;28;20411;-10
2022/11/06 01:55:46;;;;;;;0.93;0.77;;;18.40;53.30;;;;;;5113839;28;20059;-10
2022/11/06 01:58:17;;;;;;;0.73;0.63;;;18.40;53.30;;;;;;5113592;28;20047;-10
2022/11/06 02:00:43;;;;;;;0.95;0.88;;;18.40;53.30;;;;;;5113797;28;20913;-10
2022/11/06 02:03:11;;;;;;;1.35;1.00;;;18.40;53.30;;;;;;5113714;28;20058;-10
2022/11/06 02:05:38;;;;;;;1.00;0.90;;;18.40;53.30;;;;;;5113837;28;20058;-10
2022/11/06 02:08:05;;;;;;;0.70;0.70;;;18.40;53.30;;;;;;5113542;28;20047;-10
2022/11/06 02:10:32;;;;;;;0.80;0.80;;;18.40;53.30;;;;;;5113658;28;20392;-10
2022/11/06 02:13:13;;;;;;;0.95;0.90;;;18.40;53.30;;;;;;5113540;28;20053;-10
2022/11/06 02:15:47;;;;;;;0.82;0.82;;;18.40;53.50;;;;;;5113440;28;20055;-10
2022/11/06 02:18:38;;;;;;;1.00;0.80;;;18.40;53.30;;;;;;5113463;28;20055;-10
2022/11/06 02:21:21;;;;;;;0.70;0.70;;;18.40;53.30;;;;;;5113383;28;20047;-10
2022/11/06 02:24:06;;;;;;;1.17;1.02;;;18.40;53.30;;;;;;5113699;28;20043;-10
2022/11/06 02:27:12;;;;;;;0.80;0.77;;;18.40;53.30;;;;;;5113768;28;20051;-10
2022/11/06 02:29:49;;;;;;;1.10;0.98;;;18.40;53.20;;;;;;5113459;28;20100;-10
2022/11/06 02:32:26;;;;;;;0.70;0.70;;;18.40;53.20;;;;;;5113814;28;20055;-10
2022/11/06 02:34:53;;;;;;;0.73;0.73;;;18.40;53.50;;;;;;5113334;28;20040;-10
2022/11/06 02:37:28;;;;;;;0.70;0.70;;;18.40;53.20;;;;;;5113512;28;20056;-10
2022/11/06 02:39:56;;;;;;;0.82;0.82;;;18.40;53.30;;;;;;5109608;28;20048;-10
2022/11/06 02:42:24;;;;;;;1.05;0.80;;;18.40;53.30;;;;;;5113477;28;20082;-10
2022/11/06 02:44:53;;;;;;;0.82;0.82;;;18.40;53.30;;;;;;5113070;28;20051;-10
2022/11/06 02:47:21;;;;;;;0.95;0.90;;;18.40;53.20;;;;;;5113496;28;20056;-10
2022/11/06 02:49:57;;;;;;;1.13;0.90;;;18.40;53.20;;;;;;5113075;28;20445;-10
2022/11/06 02:52:28;;;;;;;1.52;0.80;;;18.40;53.20;;;;;;5113277;28;20051;-10
2022/11/06 02:55:14;;;;;;;0.90;0.88;;;18.40;53.20;;;;;;5113302;28;20107;-10
2022/11/06 02:57:44;;;;;;;1.20;1.10;;;18.40;53.20;;;;;;5112932;28;20055;-11
2022/11/06 03:00:13;;;;;;;1.05;0.90;;;18.40;53.20;;;;;;5109071;28;20491;-10
2022/11/06 03:03:00;;;;;;;1.13;0.90;;;18.40;53.20;;;;;;5112886;28;20047;-10
2022/11/06 03:05:37;;;;;;;1.20;0.93;;;18.40;53.20;;;;;;5113026;28;20082;-10
2022/11/06 03:08:19;;;;;;;0.88;0.80;;;18.40;53.20;;;;;;5112913;28;20128;-10
2022/11/06 03:10:58;;;;;;;1.08;0.90;;;18.40;53.20;;;;;;5112875;28;20051;-10
2022/11/06 03:13:51;;;;;;;1.25;0.70;;;18.40;53.20;;;;;;5112989;28;20047;-10
2022/11/06 03:16:59;;;;;;;1.27;1.02;;;18.40;53.20;;;;;;5094503;28;20051;-10
2022/11/06 03:19:37;;;;;;;0.82;0.82;;;18.40;53.20;;;;;;5112719;28;20400;-10
2022/11/06 03:22:10;;;;;;;0.75;0.75;;;18.40;53.20;;;;;;5114379;28;20047;-10
2022/11/06 03:24:48;;;;;;;0.90;0.90;;;18.40;53.20;;;;;;5116436;28;20415;-10
2022/11/06 03:27:37;;;;;;;0.70;0.70;;;18.40;53.20;;;;;;5116533;28;20385;-10
2022/11/06 03:30:12;;;;;;;1.52;0.82;;;18.40;53.20;;;;;;5113267;28;20075;-10
2022/11/06 03:32:49;;;;;;;0.70;0.70;;;18.40;53.20;;;;;;5116467;28;20051;-10
2022/11/06 03:35:23;;;;;;;0.80;0.80;;;18.40;53.20;;;;;;5116146;28;20049;-10
2022/11/06 03:37:52;;;;;;;0.70;0.70;;;18.40;53.20;;;;;;5116317;28;20490;-10
2022/11/06 03:40:20;;;;;;;0.88;0.80;;;18.40;53.20;;;;;;5116142;28;20051;-10
2022/11/06 03:42:47;;;;;;;0.80;0.80;;;18.30;53.10;;;;;;5116600;28;20049;-10
2022/11/06 03:45:21;;;;;;;0.82;0.68;;;18.30;53.20;;;;;;5115736;28;20051;-10
2022/11/06 03:47:53;;;;;;;1.35;0.90;;;18.40;53.20;;;;;;5115767;28;20056;-10
2022/11/06 03:50:30;;;;;;;1.38;0.70;;;18.40;53.10;;;;;;5115671;28;20083;-10
2022/11/06 03:53:04;;;;;;;1.10;1.00;;;18.40;53.20;;;;;;5115740;28;20399;-10
2022/11/06 03:55:37;;;;;;;0.82;0.82;;;18.40;53.10;;;;;;5116111;28;20048;-10
2022/11/06 03:58:06;;;;;;;0.90;0.90;;;18.40;53.10;;;;;;5115842;28;20047;-10
2022/11/06 04:00:36;;;;;;;0.80;0.80;;;18.40;53.20;;;;;;5115644;28;20051;-10
2022/11/06 04:03:06;;;;;;;1.00;0.90;;;18.40;53.10;;;;;;5115985;28;20083;-10
2022/11/06 04:05:38;;;;;;;1.15;0.80;;;18.40;53.10;;;;;;5115914;28;20104;-10
2022/11/06 04:13:59;;;;;;;1.10;0.93;;;18.40;53.10;;;;;;5115498;28;20047;-10
2022/11/06 04:16:46;;;;;;;1.27;1.00;;;18.40;53.10;;;;;;5115445;28;20074;-10
2022/11/06 04:19:15;;;;;;;0.77;0.77;;;18.40;53.10;;;;;;5115459;28;20138;-10
2022/11/06 04:22:14;;;;;;;1.05;0.95;;;18.40;53.10;;;;;;5115672;28;20051;-10
2022/11/06 04:27:53;;;;;;;0.60;0.60;;;18.30;53.10;;;;;;5115181;28;20105;-10
2022/11/06 04:30:19;;;;;;;0.77;0.77;;;18.40;53.10;;;;;;5115103;28;20050;-10
2022/11/06 04:32:57;;;;;;;1.08;0.73;;;18.30;53.10;;;;;;5115064;28;20079;-10
2022/11/06 04:35:56;;;;;;;1.77;1.00;;;18.40;53.20;;;;;;5115201;28;20043;-10
2022/11/06 04:38:31;;;;;;;1.17;1.08;;;18.30;53.10;;;;;;5114786;28;20067;-10
2022/11/06 04:41:33;;;;;;;1.10;0.80;;;18.40;53.20;;;;;;5114799;28;20052;-10
2022/11/06 04:44:07;;;;;;;0.70;0.70;;;18.40;53.20;;;;;;5115301;28;20051;-10
2022/11/06 04:46:38;;;;;;;0.93;0.90;;;18.40;53.20;;;;;;5114615;28;20052;-10
2022/11/06 04:49:06;;;;;;;0.88;0.82;;;18.40;53.10;;;;;;5114929;28;20980;-10
2022/11/06 04:51:36;;;;;;;1.00;0.82;;;18.30;53.10;;;;;;5115193;28;20055;-10
2022/11/06 04:54:03;;;;;;;0.50;0.50;;;18.30;53.10;;;;;;5115039;28;20054;-10
2022/11/06 04:56:30;;;;;;;0.95;0.90;;;18.30;53.10;;;;;;5114628;28;20063;-10
2022/11/06 04:58:56;;;;;;;0.80;0.80;;;18.30;53.10;;;;;;5114719;28;20047;-10
2022/11/06 05:01:22;;;;;;;1.17;0.90;;;18.30;53.10;;;;;;5114717;28;20051;-10
2022/11/06 05:03:47;;;;;;;1.23;0.90;;;18.30;53.10;;;;;;5114854;28;20507;-10
2022/11/06 05:06:14;;;;;;;0.90;0.90;;;18.30;53.10;;;;;;5114528;28;20048;-10
2022/11/06 05:08:39;;;;;;;0.75;0.75;;;18.30;53.10;;;;;;5114618;28;20055;-10
2022/11/06 05:11:06;;;;;;;1.00;0.90;;;18.30;53.10;;;;;;5114422;28;20404;-10
2022/11/06 05:13:31;;;;;;;1.00;0.90;;;18.30;53.10;;;;;;5095099;28;20400;-10
2022/11/06 05:15:58;;;;;;;0.82;0.82;;;18.30;53.10;;;;;;5114283;28;20051;-10
2022/11/06 05:18:25;;;;;;;0.70;0.70;;;18.30;53.10;;;;;;5114140;28;20488;-10
2022/11/06 05:22:56;;;;;;;1.00;0.90;;;18.30;53.10;;;;;;5114339;28;20048;-10
2022/11/06 05:23:41;;;;;;;0.80;0.80;;;18.30;53.10;;;;;;5114135;28;20051;-10
2022/11/06 05:26:07;;;;;;;1.95;1.20;;;18.30;53.10;;;;;;5113845;28;20052;-10
2022/11/06 05:28:33;;;;;;;0.90;0.80;;;18.30;53.10;;;;;;5114017;28;20130;-10
2022/11/06 05:30:59;;;;;;;0.80;0.80;;;18.30;53.10;;;;;;5114013;28;20075;-10
2022/11/06 05:33:25;;;;;;;0.85;0.85;;;18.40;53.20;;;;;;5113854;28;20074;-10
2022/11/06 05:35:51;;;;;;;1.38;0.93;;;18.30;53.10;;;;;;5114135;28;20478;-10
2022/11/06 05:38:16;;;;;;;0.77;0.70;;;18.30;53.10;;;;;;5113973;28;20051;-10
2022/11/06 05:40:42;;;;;;;0.95;0.88;;;18.30;53.20;;;;;;5114072;28;20495;-10
2022/11/06 05:43:07;;;;;;;0.82;0.82;;;18.30;53.20;;;;;;5114054;28;20083;-10
2022/11/06 05:45:33;;;;;;;0.80;0.80;;;18.30;53.10;;;;;;5113912;28;20044;-10
2022/11/06 05:47:59;;;;;;;0.75;0.75;;;18.30;53.10;;;;;;5114215;28;20464;-10
2022/11/06 05:50:24;;;;;;;1.10;0.80;;;18.30;53.10;;;;;;5114106;28;20039;-10
2022/11/06 05:52:50;;;;;;;0.80;0.80;;;18.30;53.10;;;;;;5114049;28;20082;-10
2022/11/06 05:55:16;;;;;;;1.08;0.80;;;18.30;53.10;;;;;;5113882;28;20399;-11
2022/11/06 05:57:42;;;;;;;0.90;0.90;;;18.30;53.10;;;;;;5113766;28;20477;-10
2022/11/06 06:00:09;;;;;;;1.05;0.93;;;18.30;53.10;;;;;;5112542;28;20043;-10
2022/11/06 06:02:39;;;;;;;0.60;0.60;;;18.30;53.10;;;;;;5113854;28;20048;-10
2022/11/06 06:05:05;;;;;;;0.75;0.70;;;18.30;53.10;;;;;;5113645;28;20298;-10
2022/11/06 06:07:31;;;;;;;1.20;0.80;;;18.30;53.10;;;;;;5113564;28;20054;-11
2022/11/06 06:09:57;;;;;;;1.13;0.90;;;18.30;53.10;;;;;;5113608;28;20048;-10
2022/11/06 06:12:25;;;;;;;0.80;0.80;;;18.30;53.10;;;;;;5113563;28;20048;-10
2022/11/06 06:14:51;;;;;;;0.95;0.88;;;18.30;53.10;;;;;;5113844;28;20055;-10
2022/11/06 06:17:17;;;;;;;0.80;0.80;;;18.30;53.20;;;;;;5113318;28;20101;-10
2022/11/06 06:19:43;;;;;;;1.00;0.80;;;18.30;53.20;;;;;;5113457;28;20097;-10
2022/11/06 06:22:09;;;;;;;1.13;1.02;;;18.30;53.10;;;;;;5113494;28;20048;-10
2022/11/06 06:24:34;;;;;;;0.88;0.85;;;18.30;53.10;;;;;;5113463;28;20135;-10
2022/11/06 06:27:00;;;;;;;0.70;0.70;;;18.30;53.10;;;;;;5095197;28;20133;-10
2022/11/06 06:29:26;;;;;;;0.85;0.80;;;18.30;53.10;;;;;;5113575;28;20058;-10
2022/11/06 06:31:51;;;;;;;0.98;0.88;;;18.30;53.10;;;;;;5113309;28;20051;-10
2022/11/06 06:34:17;;;;;;;0.93;0.85;;;18.30;53.10;;;;;;5113547;28;20396;-10
2022/11/06 06:36:43;;;;;;;1.13;0.90;;;18.30;53.10;;;;;;5113796;28;20441;-10
2022/11/06 06:39:09;;;;;;;1.00;0.90;;;18.30;53.10;;;;;;5113131;28;20059;-10
2022/11/06 06:41:35;;;;;;;0.75;0.75;;;18.30;53.10;;;;;;5113627;28;20047;-10
2022/11/06 06:44:00;;;;;;;0.77;0.77;;;18.30;53.10;;;;;;5113248;28;20495;-10
2022/11/06 06:46:26;;;;;;;1.08;0.98;;;18.30;53.10;;;;;;5113045;28;20052;-10
2022/11/06 06:48:52;;;;;;;1.27;0.85;;;18.30;53.10;;;;;;5112954;28;20062;-10
2022/11/06 06:51:19;;;;;;;0.90;0.90;;;18.30;53.10;;;;;;5113043;28;20051;-10
2022/11/06 06:53:46;;;;;;;1.52;1.08;;;18.30;53.10;;;;;;5113014;28;20063;-10
2022/11/06 06:56:12;;;;;;;1.20;1.10;;;18.30;53.00;;;;;;5113323;28;20044;-10
2022/11/06 06:58:37;;;;;;;0.85;0.77;;;18.30;53.00;;;;;;5116170;28;20070;-10
2022/11/06 07:01:04;;;;;;;1.77;1.30;;;18.30;53.00;;;;;;5116461;28;20104;-10
2022/11/06 07:03:30;;;;;;;0.93;0.93;;;18.30;53.10;;;;;;5116778;28;20055;-10
2022/11/06 07:05:59;;;;;;;0.98;0.90;;;18.30;53.10;;;;;;5116987;28;20062;-10
2022/11/06 07:08:26;;;;;;;1.08;1.00;;;18.30;53.00;;;;;;5116538;28;20059;-10
2022/11/06 07:10:51;;;;;;;1.42;1.10;;;18.30;53.00;;;;;;5116786;28;20071;-10
2022/11/06 07:13:17;;;;;;;0.70;0.70;;;18.30;53.20;;;;;;5115192;28;20086;-10
2022/11/06 07:15:43;;;;;;;1.23;0.90;;;18.30;53.00;;;;;;5115721;28;20473;-10
2022/11/06 07:18:09;;;;;;;0.80;0.80;;;18.30;53.00;;;;;;5116362;28;20502;-10
2022/11/06 07:20:34;;;;;;;1.05;0.80;;;18.30;53.00;;;;;;5116328;28;20052;-10
2022/11/06 07:23:07;;;;;;;0.70;0.63;;;18.30;53.00;;;;;;5116553;28;20051;-10
2022/11/06 07:25:33;;;;;;;0.80;0.80;;;18.30;53.00;;;;;;5116499;28;20066;-11
2022/11/06 07:28:01;;;;;;;1.05;0.98;;;18.30;53.00;;;;;;5116335;28;20054;-11
2022/11/06 07:30:26;;;;;;;0.60;0.60;;;18.30;53.00;;;;;;5116449;28;20146;-10
2022/11/06 07:32:52;;;;;;;0.60;0.60;;;18.30;53.00;;;;;;5116394;28;20130;-10
2022/11/06 07:35:18;;;;;;;1.10;0.95;;;18.30;53.00;;;;;;5116275;28;20051;-10
2022/11/06 07:37:43;;;;;;;0.60;0.60;;;18.30;53.00;;;;;;5096298;28;20048;-11
2022/11/06 07:40:09;;;;;;;0.90;0.90;;;18.30;53.00;;;;;;5116716;28;20048;-11
2022/11/06 07:42:35;;;;;;;0.88;0.82;;;18.30;53.00;;;;;;5116453;28;20422;-10
2022/11/06 07:45:02;;;;;;;0.70;0.70;;;18.30;53.00;;;;;;5097430;28;20052;-10
2022/11/06 07:47:29;;;;;;;1.13;1.00;;;18.30;52.90;;;;;;5115881;28;20099;-10
2022/11/06 07:49:55;;;;;;;0.75;0.75;;;18.30;52.90;;;;;;5115862;28;20065;-10
2022/11/06 07:52:21;;;;;;;0.98;0.90;;;18.30;52.90;;;;;;5115990;28;20484;-10
2022/11/06 07:54:46;;;;;;;0.77;0.77;;;18.30;52.90;;;;;;5115743;28;20048;-10
2022/11/06 07:57:12;;;;;;;1.15;0.88;;;18.30;52.90;;;;;;5115762;28;20104;-10
2022/11/06 07:59:38;;;;;;;0.82;0.77;;;18.30;52.90;;;;;;5116084;28;20060;-10
2022/11/06 08:02:03;;;;;;;0.82;0.82;;;18.30;52.80;;;;;;5115744;28;20484;-10
2022/11/06 08:04:29;;;;;;;1.30;0.82;;;18.30;52.80;;;;;;5095628;28;20408;-10
2022/11/06 08:06:56;;;;;;;0.80;0.80;;;18.30;52.90;;;;;;5115376;28;20134;-10
2022/11/06 08:09:24;;;;;;;0.73;0.60;;;18.30;52.80;;;;;;5115236;28;20480;-11
2022/11/06 08:11:49;;;;;;;1.30;1.00;;;18.40;52.90;;;;;;5115551;28;20058;-10
2022/11/06 08:14:15;;;;;;;0.80;0.80;;;18.30;52.80;;;;;;5115787;28;20052;-10
2022/11/06 08:16:41;;;;;;;0.90;0.90;;;18.30;52.80;;;;;;5115359;28;20059;-11
2022/11/06 08:19:07;;;;;;;1.33;0.90;;;18.30;52.80;;;;;;5114912;28;20059;-10
2022/11/06 08:21:32;;;;;;;1.05;0.85;;;18.40;52.90;;;;;;5115938;28;20116;-11
2022/11/06 08:23:58;;;;;;;0.95;0.85;;;18.40;52.80;;;;;;5115262;28;20051;-10
2022/11/06 08:26:24;;;;;;;0.90;0.90;;;18.40;52.80;;;;;;5115208;28;20052;-10
2022/11/06 08:28:50;;;;;;;0.90;0.80;;;18.40;52.80;;;;;;5115289;28;20051;-10
2022/11/06 08:31:17;;;;;;;0.95;0.80;;;18.40;52.80;;;;;;5115271;28;20061;-10
2022/11/06 08:33:44;;;;;;;1.10;0.77;;;18.40;52.80;;;;;;5115364;28;20056;-10
2022/11/06 08:36:10;;;;;;;0.85;0.85;;;18.40;52.80;;;;;;5115101;28;20107;-10
2022/11/06 08:38:35;;;;;;;0.80;0.80;;;18.40;52.70;;;;;;5114944;28;20051;-10
2022/11/06 08:41:09;;;;;;;1.00;0.85;;;18.40;52.70;;;;;;5114944;28;20097;-10
2022/11/06 08:43:35;;;;;;;0.80;0.80;;;18.40;52.70;;;;;;5115474;28;20051;-10
2022/11/06 08:46:02;;;;;;;0.90;0.70;;;18.40;52.60;;;;;;5114830;28;20051;-10
2022/11/06 08:48:27;;;;;;;1.00;1.00;;;18.40;52.60;;;;;;5114651;28;20056;-10
2022/11/06 08:50:53;;;;;;;0.90;0.90;;;18.40;52.60;;;;;;5115185;28;20105;-10
2022/11/06 08:53:19;;;;;;;0.82;0.82;;;18.40;52.60;;;;;;5115272;28;20143;-10
2022/11/06 08:55:44;;;;;;;0.80;0.65;;;18.50;52.60;;;;;;5096990;28;20047;-11
2022/11/06 08:58:10;;;;;;;0.90;0.90;;;18.50;52.60;;;;;;5114870;28;20044;-10
2022/11/06 09:00:35;;;;;;;0.70;0.70;;;18.50;52.50;;;;;;5115058;28;20608;-10
2022/11/06 09:03:04;;;;;;;0.80;0.80;;;18.50;52.50;;;;;;5096467;28;20066;-10
2022/11/06 09:05:30;;;;;;;1.17;1.08;;;18.50;52.70;;;;;;5114820;28;20488;-11
2022/11/06 09:07:57;;;;;;;0.88;0.77;;;18.50;52.50;;;;;;5114993;28;20120;-10
2022/11/06 09:10:23;;;;;;;0.98;0.90;;;18.50;52.50;;;;;;5114497;28;20051;-10
2022/11/06 09:12:49;;;;;;;1.00;0.90;;;18.50;52.40;;;;;;5114599;28;20439;-10
2022/11/06 09:15:14;;;;;;;0.85;0.85;;;18.50;52.40;;;;;;5096526;28;20089;-11
2022/11/06 09:17:45;;;;;;;0.80;0.80;;;18.50;52.40;;;;;;5114581;28;20407;-10
2022/11/06 09:20:12;;;;;;;;;;;18.50;52.40;;;;;;5113950;28;20142;-10
2022/11/06 09:22:38;;;;;;;0.80;0.80;;;18.50;52.40;;;;;;5114388;28;19916;-10
2022/11/06 09:25:04;;;;;;;0.70;0.70;;;18.50;52.40;;;;;;5095157;28;20405;-10
2022/11/06 09:27:30;;;;;;;0.80;0.80;;;18.50;52.40;;;;;;5114325;28;20054;-10
2022/11/06 09:29:55;;;;;;;0.90;0.90;;;18.50;52.40;;;;;;5114269;28;20047;-11
2022/11/06 09:32:21;;;;;;;1.15;0.95;;;18.50;52.40;;;;;;5114291;28;20495;-10
2022/11/06 09:34:46;;;;;;;0.85;0.82;;;18.50;52.40;;;;;;5114563;28;20056;-11
2022/11/06 09:37:12;;;;;;;0.85;0.82;;;18.50;52.40;;;;;;5114156;28;20096;-10
2022/11/06 09:39:37;;;;;;;1.00;0.75;;;18.50;52.40;;;;;;5114201;28;20047;-10
2022/11/06 09:42:46;;;;;;;1.00;0.85;;;18.50;52.40;;;;;;5114103;28;20055;-10
2022/11/06 09:45:32;;;;;;;0.70;0.70;;;18.50;52.40;;;;;;5100217;28;20043;-10
2022/11/06 09:48:09;;;;;;;1.27;1.05;;;18.50;52.40;;;;;;5114358;28;20044;-10
2022/11/06 09:50:43;;;;;;;0.80;0.80;;;18.50;52.40;;;;;;5114225;28;20044;-11
2022/11/06 09:53:35;;;;;;;1.15;0.98;;;18.50;52.40;;;;;;5114178;28;20055;-10
2022/11/06 09:56:03;;;;;;;0.80;0.80;;;18.50;52.40;;;;;;5114180;28;20387;-10
2022/11/06 09:58:45;;;;;;;0.80;0.80;;;18.50;52.40;;;;;;5114197;28;20142;-10
2022/11/06 10:01:20;;;;;;;0.80;0.80;;;18.50;52.40;;;;;;5113948;28;20419;-10
2022/11/06 10:03:55;;;;;;;0.90;0.88;;;18.50;52.40;;;;;;5113827;28;20056;-11
2022/11/06 10:06:23;;;;;;;0.80;0.80;;;18.50;52.40;;;;;;5113548;28;20052;-11
2022/11/06 10:08:53;;;;;;;0.80;0.80;;;18.50;52.40;;;;;;5113796;28;20054;-10
2022/11/06 10:11:45;;;;;;;0.80;0.80;;;18.50;52.40;;;;;;5113634;28;20044;-10
2022/11/06 10:14:43;;;;;;;0.77;0.70;;;18.50;52.40;;;;;;5113591;28;20047;-11
2022/11/06 10:17:21;;;;;;;0.80;0.70;;;18.50;52.40;;;;;;5113816;28;20480;-10
2022/11/06 10:20:18;;;;;;;0.60;0.60;;;18.50;52.30;;;;;;5113397;28;20070;-10
2022/11/06 10:23:08;;;;;;;0.68;0.60;;;18.50;52.40;;;;;;5113480;28;20525;-11
2022/11/06 10:25:44;;;;;;;0.75;0.75;;;18.50;52.30;;;;;;5113439;28;20399;-10
2022/11/06 10:28:26;;;;;;;0.60;0.60;;;18.50;52.30;;;;;;5113356;28;20130;-11
2022/11/06 10:30:56;;;;;;;0.80;0.80;;;18.50;52.30;;;;;;5113382;28;20058;-10
2022/11/06 10:33:44;;;;;;;1.10;1.00;;;18.50;52.30;;;;;;5113201;28;20093;-11
2022/11/06 10:36:16;;;;;;;0.88;0.88;;;18.50;52.30;;;;;;5112409;28;20051;-10
2022/11/06 10:38:46;;;;;;;0.70;0.70;;;18.50;52.30;;;;;;5113131;28;20040;-10
2022/11/06 10:41:23;;;;;;;1.05;0.95;;;18.50;52.30;;;;;;5113118;28;20084;-10
2022/11/06 10:43:57;;;;;;;0.90;0.90;;;18.50;52.30;;;;;;5113748;28;20104;-11
2022/11/06 10:46:38;;;;;;;0.80;0.80;;;18.50;52.30;;;;;;5113592;28;20130;-10
2022/11/06 10:49:24;;;;;;;0.70;0.70;;;18.50;52.30;;;;;;5113423;28;20480;-10
2022/11/06 10:52:11;;;;;;;0.95;0.90;;;18.50;52.30;;;;;;5113344;28;20051;-10
2022/11/06 10:55:08;;;;;;;0.75;0.75;;;18.50;52.40;;;;;;5112991;28;20081;-11
2022/11/06 10:57:45;;;;;;;0.80;0.80;;;18.50;52.30;;;;;;5113015;28;20044;-10
2022/11/06 11:00:13;;;;;;;1.15;0.90;;;18.50;52.30;;;;;;5113740;28;20093;-10
2022/11/06 11:02:45;;;;;;;0.70;0.70;;;18.50;52.30;;;;;;5113248;28;20048;-10
2022/11/06 11:05:13;;;;;;;1.13;0.98;;;18.50;52.50;;;;;;5095714;28;20043;-11
2022/11/06 11:07:40;;;;;;;0.70;0.70;;;18.50;52.30;;;;;;5113170;28;20055;-10
2022/11/06 11:10:30;;;;;;;1.30;1.02;;;18.50;52.20;;;;;;5113142;28;20087;-11
2022/11/06 11:13:02;;;;;;;1.02;0.77;;;18.50;52.30;;;;;;5112792;28;20068;-10
2022/11/06 11:15:31;;;;;;;0.90;0.90;;;18.60;52.30;;;;;;5112982;28;20075;-10
2022/11/06 11:18:17;;;;;;;1.10;1.00;;;18.60;52.60;;;;;;5112820;28;20131;-10
2022/11/06 11:20:50;;;;;;;0.77;0.70;;;18.60;52.20;;;;;;5112806;28;20051;-10
2022/11/06 11:23:24;;;;;;;0.75;0.75;;;18.60;52.20;;;;;;5112963;28;20399;-10
2022/11/06 11:25:55;;;;;;;0.80;0.80;;;18.60;52.20;;;;;;5113030;28;20142;-10
2022/11/06 11:28:37;;;;;;;1.20;0.90;;;18.60;52.30;;;;;;5112271;28;20482;-11
2022/11/06 11:31:12;;;;;;;0.80;0.80;;;18.60;52.30;;;;;;5112503;28;20051;-11
2022/11/06 11:33:41;;;;;;;0.70;0.70;;;18.50;52.20;;;;;;5112664;28;20052;-10
2022/11/06 11:36:08;;;;;;;0.93;0.90;;;18.50;52.30;;;;;;5112608;28;20048;-10
2022/11/06 11:38:37;;;;;;;0.90;0.70;;;18.50;52.30;;;;;;5112120;28;20485;-11
2022/11/06 11:41:18;;;;;;;0.82;0.80;;;18.50;52.30;;;;;;5112374;28;20059;-10
2022/11/06 11:44:05;;;;;;;0.90;0.90;;;18.50;52.30;;;;;;5115150;28;20092;-10
2022/11/06 11:46:32;;;;;;;0.80;0.80;;;18.50;52.30;;;;;;5116360;28;20079;-10
2022/11/06 11:48:58;;;;;;;0.90;0.90;;;18.50;52.30;;;;;;5116135;28;20088;-10
2022/11/06 11:51:36;;;;;;;0.80;0.80;;;18.50;52.30;;;;;;5116225;28;20514;-10
2022/11/06 11:54:12;;;;;;;0.80;0.80;;;18.50;52.30;;;;;;5115826;28;20050;-10
2022/11/06 11:56:56;;;;;;;0.75;0.70;;;18.50;52.30;;;;;;5115793;28;20035;-10
2022/11/06 11:59:25;;;;;;;0.80;0.80;;;18.50;52.30;;;;;;5115752;28;20043;-10
2022/11/06 12:01:52;;;;;;;0.88;0.88;;;18.50;52.30;;;;;;5115992;28;20047;-10
2022/11/06 12:04:27;;;;;;;0.95;0.90;;;18.50;52.30;;;;;;5115660;28;20090;-10
2022/11/06 12:06:56;;;;;;;0.82;0.82;;;18.60;52.30;;;;;;5115546;28;20052;-10
2022/11/06 12:09:23;;;;;;;0.80;0.80;;;18.50;52.30;;;;;;5111495;28;20089;-10
2022/11/06 12:11:50;;;;;;;0.70;0.70;;;18.50;52.20;;;;;;5115630;28;20399;-11
2022/11/06 12:14:28;;;;;;;0.70;0.70;;;18.60;52.30;;;;;;5115429;28;20059;-10
2022/11/06 12:17:16;;;;;;;0.90;0.80;;;18.50;52.20;;;;;;5115545;28;20054;-10
2022/11/06 12:19:49;;;;;;;1.10;1.00;;;18.50;52.20;;;;;;5112243;28;20058;-10
2022/11/06 12:22:22;;;;;;;0.90;0.80;;;18.50;52.20;;;;;;5115620;28;20053;-10
2022/11/06 12:24:58;;;;;;;0.60;0.60;;;18.50;52.30;;;;;;5115931;28;20396;-10
2022/11/06 12:27:37;;;;;;;0.60;0.60;;;18.50;52.30;;;;;;5115616;28;20052;-10
2022/11/06 12:30:08;;;;;;;0.73;0.73;;;18.50;52.30;;;;;;5115474;28;20166;-10
2022/11/06 12:32:52;;;;;;;1.02;1.02;;;18.50;52.30;;;;;;5115606;28;20056;-10
2022/11/06 12:35:29;;;;;;;0.95;0.70;;;18.50;52.40;;;;;;5115617;28;20048;-10
2022/11/06 12:38:15;;;;;;;1.10;0.80;;;18.50;52.40;;;;;;5115417;28;20180;-11
2022/11/06 12:40:57;;;;;;;0.93;0.93;;;18.50;52.40;;;;;;5115042;28;20055;-10
2022/11/06 12:43:40;;;;;;;0.60;0.60;;;18.50;52.30;;;;;;5115179;28;20411;-10
2022/11/06 12:46:17;;;;;;;0.70;0.70;;;18.50;52.40;;;;;;5115043;28;20052;-10
2022/11/06 12:49:23;;;;;;;1.15;0.88;;;18.50;52.40;;;;;;5114947;28;20075;-11
2022/11/06 12:52:12;;;;;;;0.80;0.80;;;18.50;52.40;;;;;;5114919;28;20051;-10
2022/11/06 12:55:02;;;;;;;0.88;0.80;;;18.50;52.40;;;;;;5113947;28;20054;-10
2022/11/06 12:57:52;;;;;;;1.10;0.80;;;18.50;52.40;;;;;;5114755;28;20088;-11
2022/11/06 13:00:24;;;;;;;1.00;0.88;;;18.50;52.40;;;;;;5114895;28;20048;-10
2022/11/06 13:03:34;;;;;;;0.95;0.80;;;18.50;52.40;;;;;;5115143;28;20043;-10
2022/11/06 13:06:03;;;;;;;0.77;0.70;;;18.50;52.40;;;;;;5114257;28;20056;-10
2022/11/06 13:09:12;;;;;;;1.10;0.90;;;18.50;52.40;;;;;;5114390;28;20051;-10
2022/11/06 13:12:03;;;;;;;0.80;0.80;;;18.50;52.40;;;;;;5114955;28;20047;-10
2022/11/06 13:14:43;;;;;;;0.65;0.65;;;18.50;52.30;;;;;;5114558;28;20047;-10
2022/11/06 13:17:29;;;;;;;1.08;0.80;;;18.50;52.30;;;;;;5114549;28;20048;-11
2022/11/06 13:19:57;;;;;;;0.75;0.70;;;18.50;52.30;;;;;;5114330;28;20083;-10
2022/11/06 13:22:26;;;;;;;0.85;0.70;;;18.50;52.30;;;;;;5114423;28;20059;-11
2022/11/06 13:25:06;;;;;;;0.60;0.60;;;18.50;52.30;;;;;;5114304;28;20047;-11